Time;durP1;ratioP1;P1;durP2;ratioP2;P2;SDS_P1;SDS_P2;PMS_P1;PMS_P2;Temp;Humidity;BMP_temperature;BMP_pressure;BME280_temperature;BME280_humidity;BME280_pressure;Samples;Min_cycle;Max_cycle;Signal;HPM_P1;HPM_P2
2023/01/25 00:02:20;;;;;;;26.10;19.90;;;5.10;99.90;;;;;;5019926;28;20168;-69
2023/01/25 00:04:46;;;;;;;23.60;18.23;;;5.20;99.90;;;;;;5032183;28;20168;-69
2023/01/25 00:07:11;;;;;;;27.27;21.40;;;5.10;99.90;;;;;;5031234;28;20167;-69
2023/01/25 00:09:37;;;;;;;28.37;21.10;;;4.80;99.90;;;;;;5031199;28;20245;-69
2023/01/25 00:12:02;;;;;;;25.53;18.53;;;4.70;99.90;;;;;;5027907;28;20176;-72
2023/01/25 00:14:28;;;;;;;26.63;21.13;;;4.50;99.90;;;;;;5030176;28;20175;-71
2023/01/25 00:16:54;;;;;;;26.87;20.93;;;4.50;99.90;;;;;;5030599;28;20169;-72
2023/01/25 00:19:19;;;;;;;36.23;24.50;;;4.50;99.90;;;;;;5054647;22;20201;-73
2023/01/25 00:21:45;;;;;;;30.93;21.73;;;4.60;99.90;;;;;;5051362;28;20249;-72
2023/01/25 00:24:10;;;;;;;32.17;21.83;;;4.80;99.90;;;;;;5052760;28;20175;-72
2023/01/25 00:26:37;;;;;;;30.87;22.77;;;4.70;99.90;;;;;;5052767;28;20171;-72
2023/01/25 00:29:04;;;;;;;26.87;20.50;;;4.80;99.90;;;;;;5051484;28;20527;-72
2023/01/25 00:32:08;;;;;;;27.07;19.43;;;4.90;99.90;;;;;;5051122;28;20563;-72
2023/01/25 00:34:52;;;;;;;25.60;19.63;;;5.00;99.90;;;;;;5051221;28;20443;-73
2023/01/25 00:37:21;;;;;;;29.90;22.73;;;4.90;99.90;;;;;;5052638;28;20397;-72
2023/01/25 00:39:47;;;;;;;32.23;21.47;;;4.90;99.90;;;;;;5052476;28;20417;-72
2023/01/25 00:42:15;;;;;;;27.30;21.70;;;4.80;99.90;;;;;;5051188;28;20504;-72
2023/01/25 00:44:41;;;;;;;25.77;19.33;;;4.80;99.90;;;;;;5052546;28;20206;-72
2023/01/25 00:47:08;;;;;;;29.67;21.13;;;4.60;99.90;;;;;;5018778;28;20456;-72
2023/01/25 00:49:33;;;;;;;31.37;21.80;;;4.70;99.90;;;;;;5035828;28;20445;-72
2023/01/25 00:51:59;;;;;;;25.83;20.40;;;4.90;99.90;;;;;;5055408;28;20399;-72
2023/01/25 01:01:09;;;;;;;25.60;19.13;;;4.70;99.90;;;;;;5056133;28;20388;-72
2023/01/25 01:03:35;;;;;;;32.77;21.97;;;4.60;99.90;;;;;;5038117;28;20397;-71
2023/01/25 01:06:38;;;;;;;35.87;23.03;;;4.60;99.90;;;;;;5055767;28;20400;-72
2023/01/25 01:12:26;;;;;;;26.07;19.20;;;4.60;99.90;;;;;;5056099;28;20415;-73
2023/01/25 01:14:51;;;;;;;30.63;23.03;;;4.70;99.90;;;;;;5055800;28;20393;-72
2023/01/25 01:17:17;;;;;;;27.93;20.73;;;4.60;99.90;;;;;;5055703;28;20405;-72
2023/01/25 01:19:42;;;;;;;30.23;21.90;;;4.80;99.90;;;;;;5055511;28;20211;-73
2023/01/25 01:22:08;;;;;;;25.13;20.10;;;4.70;99.90;;;;;;5057614;28;20147;-72
2023/01/25 01:24:34;;;;;;;28.43;20.97;;;4.80;99.90;;;;;;5055917;28;20542;-72
2023/01/25 01:26:59;;;;;;;32.90;22.80;;;4.80;99.90;;;;;;5037324;28;20160;-73
2023/01/25 01:29:25;;;;;;;26.93;19.53;;;4.70;99.90;;;;;;5016757;28;20188;-73
2023/01/25 01:31:51;;;;;;;25.17;19.40;;;4.80;99.90;;;;;;5033797;28;20175;-72
2023/01/25 01:34:17;;;;;;;25.10;18.60;;;4.80;99.90;;;;;;5036219;28;20234;-73
2023/01/25 01:36:43;;;;;;;25.70;19.90;;;5.00;99.90;;;;;;5036296;28;20875;-72
2023/01/25 01:39:09;;;;;;;29.93;20.50;;;5.00;99.90;;;;;;5035721;28;20444;-73
2023/01/25 01:41:36;;;;;;;29.90;21.77;;;4.80;99.90;;;;;;5036126;28;20406;-72
2023/01/25 01:44:02;;;;;;;24.73;20.00;;;4.80;99.90;;;;;;5036435;28;20176;-72
2023/01/25 01:46:38;;;;;;;23.33;19.33;;;4.90;99.90;;;;;;5037890;28;20775;-72
2023/01/25 01:49:26;;;;;;;29.27;21.00;;;4.80;99.90;;;;;;5036625;28;20387;-72
2023/01/25 01:52:01;;;;;;;24.40;18.30;;;4.90;99.90;;;;;;5044390;28;20486;-72
2023/01/25 01:54:38;;;;;;;22.67;17.47;;;5.00;99.90;;;;;;5055891;28;20874;-72
2023/01/25 01:57:13;;;;;;;27.93;20.03;;;5.10;99.90;;;;;;5055251;28;20408;-72
2023/01/25 01:59:47;;;;;;;24.97;18.17;;;5.00;99.90;;;;;;5055008;28;20454;-72
2023/01/25 02:02:14;;;;;;;26.17;20.20;;;4.80;99.90;;;;;;5055034;28;20732;-72
2023/01/25 02:04:41;;;;;;;30.60;21.53;;;4.70;99.90;;;;;;5055062;28;20420;-72
2023/01/25 02:07:15;;;;;;;24.73;18.70;;;4.70;99.90;;;;;;5055005;28;20405;-72
2023/01/25 02:09:42;;;;;;;23.10;17.60;;;4.70;99.90;;;;;;5055529;28;20417;-72
2023/01/25 02:12:09;;;;;;;26.70;20.20;;;4.60;99.90;;;;;;5055383;28;20480;-73
2023/01/25 02:14:38;;;;;;;26.07;19.43;;;4.60;99.90;;;;;;5055066;28;20401;-72
2023/01/25 02:17:04;;;;;;;29.40;19.33;;;4.50;99.90;;;;;;5054812;28;20455;-72
2023/01/25 02:19:52;;;;;;;26.67;18.77;;;4.60;99.90;;;;;;5054412;28;20846;-72
2023/01/25 02:22:24;;;;;;;25.83;19.70;;;4.40;99.90;;;;;;5053968;28;20170;-72
2023/01/25 02:25:00;;;;;;;24.93;18.33;;;4.30;99.90;;;;;;5054633;28;20392;-72
2023/01/25 02:27:26;;;;;;;25.90;19.50;;;4.40;99.90;;;;;;5037922;28;20439;-72
2023/01/25 02:29:52;;;;;;;24.73;18.63;;;4.40;99.90;;;;;;5054594;28;20418;-72
2023/01/25 02:32:17;;;;;;;31.97;21.07;;;4.60;99.90;;;;;;5054248;28;20155;-72
2023/01/25 02:34:43;;;;;;;24.63;18.50;;;4.60;99.90;;;;;;5054258;28;20241;-72
2023/01/25 02:37:13;;;;;;;25.00;18.97;;;4.70;99.90;;;;;;5053695;28;20162;-72
2023/01/25 02:39:40;;;;;;;31.83;21.27;;;4.80;99.90;;;;;;5054503;28;20198;-71
2023/01/25 02:42:05;;;;;;;24.10;17.90;;;4.70;99.90;;;;;;5054579;28;20760;-72
2023/01/25 02:44:32;;;;;;;23.30;18.23;;;4.70;99.90;;;;;;5053623;28;20405;-72
2023/01/25 02:46:58;;;;;;;25.13;17.73;;;4.70;99.90;;;;;;5054267;28;20197;-71
2023/01/25 02:49:23;;;;;;;25.80;18.00;;;4.70;99.90;;;;;;5052764;28;20464;-72
2023/01/25 02:51:54;;;;;;;26.77;18.90;;;4.70;99.90;;;;;;5053132;28;20166;-72
2023/01/25 02:54:20;;;;;;;25.20;18.73;;;4.80;99.90;;;;;;5054183;28;20198;-72
2023/01/25 02:56:46;;;;;;;26.60;19.90;;;4.50;99.90;;;;;;5053840;28;20406;-72
2023/01/25 02:59:12;;;;;;;27.47;19.50;;;4.30;99.90;;;;;;5053685;28;20397;-72
2023/01/25 03:01:39;;;;;;;26.00;20.00;;;4.30;99.90;;;;;;5053986;28;20170;-72
2023/01/25 03:04:05;;;;;;;22.27;17.27;;;4.40;99.90;;;;;;5053804;28;20167;-72
2023/01/25 03:06:31;;;;;;;25.90;19.17;;;4.40;99.90;;;;;;5053498;28;20755;-72
2023/01/25 03:08:57;;;;;;;28.20;20.27;;;4.60;99.90;;;;;;5053693;28;20437;-72
2023/01/25 03:11:23;;;;;;;25.20;18.90;;;4.60;99.90;;;;;;5053772;28;20456;-72
2023/01/25 03:13:48;;;;;;;26.60;19.07;;;4.60;99.90;;;;;;5034977;28;20436;-72
2023/01/25 03:16:14;;;;;;;26.13;18.40;;;4.70;99.90;;;;;;5053343;28;20205;-71
2023/01/25 03:18:40;;;;;;;26.23;19.40;;;4.80;99.90;;;;;;5053570;28;20279;-71
2023/01/25 03:21:08;;;;;;;25.33;18.90;;;4.90;99.90;;;;;;5052990;28;20202;-72
2023/01/25 03:23:34;;;;;;;27.07;19.77;;;4.80;99.90;;;;;;5053125;28;20414;-72
2023/01/25 03:26:14;;;;;;;28.03;19.37;;;5.00;99.90;;;;;;5048342;28;20410;-72
2023/01/25 03:28:41;;;;;;;24.40;19.50;;;5.00;99.90;;;;;;4996178;28;20814;-72
2023/01/25 03:31:08;;;;;;;25.53;17.93;;;4.80;99.90;;;;;;5013542;28;20426;-72
2023/01/25 03:33:34;;;;;;;27.20;20.30;;;4.70;99.90;;;;;;5013482;28;20545;-72
2023/01/25 03:35:59;;;;;;;24.60;18.63;;;4.70;99.90;;;;;;5013783;28;20930;-72
2023/01/25 03:38:25;;;;;;;27.77;17.27;;;4.50;99.90;;;;;;5017052;28;20191;-72
2023/01/25 03:40:51;;;;;;;23.73;16.97;;;4.40;99.90;;;;;;5033384;28;20256;-72
2023/01/25 03:43:17;;;;;;;24.77;19.13;;;4.30;99.90;;;;;;5033223;28;20638;-74
2023/01/25 03:45:42;;;;;;;22.13;16.43;;;4.20;99.90;;;;;;5033293;28;20213;-71
2023/01/25 03:48:08;;;;;;;24.40;18.60;;;4.10;99.90;;;;;;5035735;28;20421;-72
2023/01/25 03:50:33;;;;;;;25.83;18.40;;;4.10;99.90;;;;;;5052971;28;20557;-72
2023/01/25 03:53:05;;;;;;;27.93;18.77;;;4.20;99.90;;;;;;5050739;28;20304;-72
2023/01/25 03:55:32;;;;;;;26.50;19.63;;;4.40;99.90;;;;;;5053667;28;20167;-71
2023/01/25 03:57:57;;;;;;;25.60;18.40;;;4.20;99.90;;;;;;5052953;28;20401;-72
2023/01/25 04:00:23;;;;;;;25.27;17.80;;;4.20;99.90;;;;;;5052751;28;20783;-71
2023/01/25 04:02:49;;;;;;;25.63;18.80;;;4.40;99.90;;;;;;5052870;28;20171;-71
2023/01/25 04:05:14;;;;;;;26.23;17.70;;;4.70;99.90;;;;;;5052889;28;20170;-72
2023/01/25 04:07:40;;;;;;;27.17;19.80;;;4.80;99.90;;;;;;5052538;28;20245;-72
2023/01/25 04:10:06;;;;;;;33.23;20.47;;;4.60;99.90;;;;;;5052951;28;20217;-72
2023/01/25 04:12:32;;;;;;;27.80;18.87;;;4.70;99.90;;;;;;5052927;28;20198;-72
2023/01/25 04:14:57;;;;;;;22.73;17.77;;;4.60;99.90;;;;;;5052524;28;20406;-72
2023/01/25 04:17:23;;;;;;;20.67;15.63;;;4.40;99.90;;;;;;5052833;28;20241;-72
2023/01/25 04:19:49;;;;;;;27.13;18.70;;;4.30;99.90;;;;;;5052492;28;20206;-72
2023/01/25 04:22:15;;;;;;;22.87;16.10;;;4.40;99.90;;;;;;5052635;28;20269;-72
2023/01/25 04:24:41;;;;;;;19.20;14.87;;;4.10;99.90;;;;;;5051639;28;20254;-72
2023/01/25 04:27:43;;;;;;;24.67;17.47;;;4.30;99.90;;;;;;5036875;28;20509;-71
2023/01/25 04:30:09;;;;;;;24.67;18.10;;;4.20;99.90;;;;;;5018900;28;20816;-72
2023/01/25 04:32:36;;;;;;;23.23;16.27;;;4.40;99.90;;;;;;5036430;28;20445;-72
2023/01/25 04:35:01;;;;;;;18.60;15.17;;;4.50;99.90;;;;;;5036440;28;20406;-72
2023/01/25 04:37:27;;;;;;;18.17;13.50;;;4.50;99.90;;;;;;5036531;28;20451;-72
2023/01/25 04:39:52;;;;;;;20.53;15.27;;;4.50;99.90;;;;;;5036152;28;20187;-72
2023/01/25 04:42:18;;;;;;;22.03;14.70;;;4.50;99.90;;;;;;5036269;28;20167;-71
2023/01/25 04:44:43;;;;;;;20.73;13.80;;;4.50;99.90;;;;;;5036273;28;20175;-73
2023/01/25 04:47:09;;;;;;;18.63;13.93;;;4.50;99.90;;;;;;5036566;28;20542;-71
2023/01/25 04:49:35;;;;;;;19.37;13.60;;;4.60;99.90;;;;;;5036526;28;20194;-72
2023/01/25 04:52:00;;;;;;;22.17;16.33;;;4.70;99.90;;;;;;5036226;28;20273;-71
2023/01/25 04:54:26;;;;;;;20.00;14.40;;;4.80;99.90;;;;;;5051772;28;20198;-72
2023/01/25 04:56:51;;;;;;;20.40;15.17;;;5.00;99.90;;;;;;5055213;28;20711;-72
2023/01/25 04:59:17;;;;;;;17.47;13.10;;;5.10;99.90;;;;;;5055707;28;20162;-72
2023/01/25 05:01:43;;;;;;;19.23;13.90;;;5.10;99.90;;;;;;5055006;28;20202;-73
2023/01/25 05:04:08;;;;;;;17.67;15.00;;;5.20;99.90;;;;;;5056288;28;20193;-73
2023/01/25 05:06:34;;;;;;;20.20;13.93;;;5.10;99.90;;;;;;5055820;28;20189;-72
2023/01/25 05:08:59;;;;;;;17.03;13.40;;;4.90;99.90;;;;;;5055616;28;20167;-72
2023/01/25 05:11:25;;;;;;;16.93;13.50;;;4.80;99.90;;;;;;5055703;28;20566;-73
2023/01/25 05:13:50;;;;;;;17.20;11.80;;;4.70;99.90;;;;;;5055617;28;20230;-72
2023/01/25 05:16:16;;;;;;;16.60;12.37;;;4.70;99.90;;;;;;5056106;28;20159;-72
2023/01/25 05:18:42;;;;;;;19.50;14.23;;;4.40;99.90;;;;;;5048681;28;20188;-73
2023/01/25 05:21:56;;;;;;;17.50;13.23;;;4.30;99.90;;;;;;5015692;28;20204;-73
2023/01/25 05:23:53;;;;;;;15.30;11.87;;;4.20;99.90;;;;;;5015381;28;20180;-73
2023/01/25 05:29:03;;;;;;;15.57;12.60;;;4.40;99.90;;;;;;5015847;28;20219;-73
2023/01/25 05:31:29;;;;;;;16.40;12.83;;;4.10;99.90;;;;;;5015862;28;20415;-72
2023/01/25 05:33:54;;;;;;;15.97;12.43;;;4.20;99.90;;;;;;5054897;28;20285;-72
2023/01/25 05:36:20;;;;;;;15.40;12.00;;;4.20;99.90;;;;;;5054824;28;20167;-73
2023/01/25 05:38:45;;;;;;;163.40;88.60;;;4.20;99.90;;;;;;5047482;28;20176;-73
2023/01/25 05:41:11;;;;;;;19.13;14.10;;;4.30;99.90;;;;;;5035298;28;20554;-72
2023/01/25 05:43:36;;;;;;;18.27;13.17;;;4.30;99.90;;;;;;5036152;28;20543;-72
2023/01/25 05:46:03;;;;;;;15.57;12.53;;;4.50;99.90;;;;;;5035498;28;20171;-72
2023/01/25 05:48:29;;;;;;;14.60;12.20;;;4.40;99.90;;;;;;5035613;28;20258;-72
2023/01/25 05:50:57;;;;;;;17.33;12.80;;;4.30;99.90;;;;;;5035040;28;20552;-72
2023/01/25 05:53:26;;;;;;;17.90;13.23;;;4.40;99.90;;;;;;5042937;28;20222;-72
2023/01/25 05:55:52;;;;;;;19.03;13.27;;;4.40;99.90;;;;;;5055241;28;20462;-72
2023/01/25 05:58:17;;;;;;;16.10;12.40;;;4.50;99.90;;;;;;5054810;28;20496;-72
2023/01/25 06:00:43;;;;;;;15.23;12.23;;;4.70;99.90;;;;;;5054851;28;20184;-72
2023/01/25 06:03:08;;;;;;;16.40;12.60;;;4.80;99.90;;;;;;5055415;28;20166;-72
2023/01/25 06:05:34;;;;;;;15.77;11.73;;;4.80;99.90;;;;;;5054790;28;20254;-72
2023/01/25 06:07:59;;;;;;;19.20;14.17;;;4.60;99.90;;;;;;5054747;28;20166;-71
2023/01/25 06:10:25;;;;;;;14.33;12.13;;;4.60;99.90;;;;;;5054506;28;20257;-71
2023/01/25 06:12:56;;;;;;;18.77;15.10;;;4.80;99.90;;;;;;5054797;28;20275;-72
2023/01/25 06:15:22;;;;;;;18.87;14.93;;;4.80;99.90;;;;;;5054892;28;20622;-72
2023/01/25 06:17:48;;;;;;;16.40;13.73;;;4.70;99.90;;;;;;5054624;28;20411;-71
2023/01/25 06:20:13;;;;;;;15.10;12.40;;;4.80;99.90;;;;;;5077899;22;20233;-69
2023/01/25 06:22:39;;;;;;;19.77;13.27;;;4.80;99.90;;;;;;5054992;28;20590;-70
2023/01/25 06:25:05;;;;;;;16.10;12.17;;;4.90;99.90;;;;;;5054715;28;20166;-69
2023/01/25 06:27:30;;;;;;;16.63;12.73;;;4.90;99.90;;;;;;5055062;28;20167;-69
2023/01/25 06:29:56;;;;;;;16.97;12.77;;;4.80;99.90;;;;;;5055579;28;20448;-69
2023/01/25 06:32:24;;;;;;;16.57;13.43;;;4.90;99.90;;;;;;5055469;28;20171;-70
2023/01/25 06:34:50;;;;;;;14.40;11.30;;;4.70;99.90;;;;;;5037342;28;20171;-70
2023/01/25 06:37:15;;;;;;;16.93;13.07;;;4.70;99.90;;;;;;5055663;28;20411;-70
2023/01/25 06:39:41;;;;;;;17.53;14.10;;;4.80;99.90;;;;;;5054809;28;20166;-69
2023/01/25 06:42:06;;;;;;;14.80;12.17;;;4.90;99.90;;;;;;5037230;28;20196;-70
2023/01/25 06:44:33;;;;;;;15.70;12.67;;;4.90;99.90;;;;;;5054236;28;20174;-69
2023/01/25 06:46:59;;;;;;;20.17;14.30;;;4.90;99.90;;;;;;5054173;28;20166;-68
2023/01/25 06:49:24;;;;;;;16.97;13.20;;;5.10;99.90;;;;;;5052920;28;20497;-70
2023/01/25 06:51:50;;;;;;;17.00;14.07;;;5.20;99.90;;;;;;5054362;28;20194;-69
2023/01/25 06:54:15;;;;;;;16.97;13.50;;;5.30;99.90;;;;;;5052069;28;20194;-70
2023/01/25 06:56:41;;;;;;;16.87;12.90;;;5.20;99.90;;;;;;5053926;28;20193;-70
2023/01/25 06:59:07;;;;;;;19.80;15.00;;;5.30;99.90;;;;;;5054042;28;20242;-70
2023/01/25 07:01:32;;;;;;;19.30;13.60;;;5.30;99.90;;;;;;5053584;28;20208;-69
2023/01/25 07:03:58;;;;;;;17.00;14.20;;;5.00;99.90;;;;;;5036190;28;20172;-69
2023/01/25 07:06:25;;;;;;;17.97;13.90;;;4.60;99.90;;;;;;5053886;28;20174;-70
2023/01/25 07:08:51;;;;;;;20.20;14.23;;;4.50;99.90;;;;;;5035110;28;20436;-70
2023/01/25 07:11:17;;;;;;;15.77;12.53;;;4.50;99.90;;;;;;5053325;28;20424;-69
2023/01/25 07:13:44;;;;;;;19.50;14.73;;;4.70;99.90;;;;;;5052890;28;20198;-69
2023/01/25 07:16:13;;;;;;;15.83;13.00;;;4.60;99.90;;;;;;5052946;28;20406;-69
2023/01/25 07:18:39;;;;;;;19.83;15.07;;;4.60;99.90;;;;;;5053047;28;20412;-69
2023/01/25 07:21:07;;;;;;;19.17;12.63;;;4.70;99.90;;;;;;5035345;28;20439;-69
2023/01/25 07:23:34;;;;;;;19.60;14.60;;;4.90;99.90;;;;;;5052723;28;20512;-69
2023/01/25 07:26:00;;;;;;;22.00;14.87;;;5.00;99.90;;;;;;5036812;28;20453;-69
2023/01/25 07:28:26;;;;;;;19.90;14.90;;;4.90;99.90;;;;;;5033234;28;20398;-70
2023/01/25 07:30:52;;;;;;;22.40;16.93;;;5.20;99.90;;;;;;5033102;28;20448;-69
2023/01/25 07:33:17;;;;;;;18.43;13.60;;;5.40;99.90;;;;;;5013425;28;20455;-70
2023/01/25 07:35:43;;;;;;;19.60;14.43;;;5.40;99.90;;;;;;5032974;28;20172;-70
2023/01/25 07:38:08;;;;;;;17.47;13.33;;;5.50;99.90;;;;;;5033071;28;20175;-70
2023/01/25 07:40:34;;;;;;;17.13;13.03;;;5.20;99.90;;;;;;5032591;28;20324;-71
2023/01/25 07:43:00;;;;;;;17.50;13.40;;;5.10;99.90;;;;;;5032411;28;20178;-69
2023/01/25 07:45:29;;;;;;;17.83;13.23;;;5.20;99.90;;;;;;5032890;28;20410;-70
2023/01/25 07:47:56;;;;;;;16.27;12.37;;;5.30;99.90;;;;;;5032967;28;20170;-69
2023/01/25 07:50:22;;;;;;;20.67;14.17;;;5.30;99.90;;;;;;5032874;28;21012;-69
2023/01/25 07:52:47;;;;;;;18.00;13.70;;;5.20;99.90;;;;;;5034518;28;20559;-70
2023/01/25 07:55:14;;;;;;;18.80;14.30;;;5.30;99.90;;;;;;5050986;28;20645;-69
2023/01/25 07:57:39;;;;;;;15.07;12.03;;;5.10;99.90;;;;;;5053176;28;20648;-69
2023/01/25 08:00:06;;;;;;;17.40;12.70;;;4.90;99.90;;;;;;5054336;28;20421;-70
2023/01/25 08:02:32;;;;;;;15.17;12.83;;;4.70;99.90;;;;;;5056812;28;20171;-69
2023/01/25 08:04:57;;;;;;;13.53;11.60;;;4.80;99.90;;;;;;5056397;28;20405;-70
2023/01/25 08:07:23;;;;;;;16.40;12.47;;;4.80;99.90;;;;;;5057284;28;20397;-70
2023/01/25 08:09:48;;;;;;;14.37;11.50;;;5.00;99.90;;;;;;5056072;28;20577;-70
2023/01/25 08:12:16;;;;;;;17.37;13.80;;;5.00;99.90;;;;;;5056767;28;20162;-70
2023/01/25 08:14:41;;;;;;;17.00;13.10;;;4.90;99.90;;;;;;5056657;28;20179;-70
2023/01/25 08:17:07;;;;;;;16.40;12.17;;;5.00;99.90;;;;;;5057427;28;20409;-71
2023/01/25 08:19:33;;;;;;;18.10;12.70;;;4.80;99.90;;;;;;5056467;28;20171;-71
2023/01/25 08:21:58;;;;;;;16.47;13.13;;;4.90;99.90;;;;;;5056296;28;20622;-72
2023/01/25 08:24:24;;;;;;;17.73;13.10;;;5.10;99.90;;;;;;5055726;28;20273;-70
2023/01/25 08:26:49;;;;;;;16.47;13.60;;;5.20;99.90;;;;;;5056335;28;20171;-74
2023/01/25 08:29:15;;;;;;;15.17;11.97;;;5.30;99.90;;;;;;5056458;28;20700;-72
2023/01/25 08:31:42;;;;;;;16.17;12.53;;;5.20;99.90;;;;;;5056169;28;20190;-72
2023/01/25 08:34:08;;;;;;;16.63;12.93;;;5.30;99.90;;;;;;5055887;28;20190;-70
2023/01/25 08:36:34;;;;;;;17.20;13.30;;;5.00;99.90;;;;;;5056527;28;20920;-70
2023/01/25 08:39:02;;;;;;;18.80;13.80;;;4.90;99.90;;;;;;5055666;28;20191;-71
2023/01/25 08:41:29;;;;;;;15.60;13.73;;;4.80;99.90;;;;;;5038017;28;20665;-69
2023/01/25 08:43:55;;;;;;;20.43;14.53;;;4.60;99.90;;;;;;5056747;28;20855;-71
2023/01/25 08:46:23;;;;;;;17.97;12.83;;;4.50;99.90;;;;;;5056293;28;20413;-69
2023/01/25 08:48:54;;;;;;;17.03;13.07;;;4.50;99.90;;;;;;5056122;28;20416;-69
2023/01/25 08:51:19;;;;;;;17.10;14.30;;;4.80;99.90;;;;;;5056159;28;20795;-69
2023/01/25 08:53:45;;;;;;;15.83;12.27;;;4.70;99.90;;;;;;5055893;28;20444;-69
2023/01/25 08:56:13;;;;;;;14.83;12.50;;;4.70;99.90;;;;;;5054983;28;20167;-70
2023/01/25 08:58:41;;;;;;;16.20;13.03;;;4.60;99.90;;;;;;5055826;28;20167;-70
2023/01/25 09:01:09;;;;;;;18.37;13.80;;;5.00;99.90;;;;;;5055929;28;20421;-70
2023/01/25 09:03:42;;;;;;;18.37;13.60;;;4.70;99.90;;;;;;5055836;28;20903;-70
2023/01/25 09:06:08;;;;;;;18.27;14.23;;;4.60;99.90;;;;;;5055774;28;20408;-71
2023/01/25 09:08:34;;;;;;;16.17;13.80;;;4.60;99.90;;;;;;5055338;28;20454;-71
2023/01/25 09:11:09;;;;;;;20.17;16.27;;;4.80;99.90;;;;;;5036612;28;20448;-69
2023/01/25 09:13:34;;;;;;;15.70;12.90;;;4.90;99.90;;;;;;5055327;28;20543;-68
2023/01/25 09:16:00;;;;;;;16.23;13.27;;;4.90;99.90;;;;;;5037709;28;20470;-69
2023/01/25 09:18:27;;;;;;;17.87;13.80;;;4.90;99.90;;;;;;5055555;28;20193;-69
2023/01/25 09:20:53;;;;;;;18.73;12.60;;;4.80;99.90;;;;;;5055665;28;20448;-69
2023/01/25 09:23:21;;;;;;;14.97;12.63;;;4.80;99.90;;;;;;5050392;28;20461;-70
2023/01/25 09:25:47;;;;;;;22.90;13.53;;;5.00;99.90;;;;;;5027964;28;20202;-69
2023/01/25 09:28:13;;;;;;;16.83;13.57;;;4.90;99.90;;;;;;5055170;28;20405;-70
2023/01/25 09:30:38;;;;;;;15.20;12.60;;;4.90;99.90;;;;;;5055298;28;20194;-70
2023/01/25 09:33:04;;;;;;;15.33;11.83;;;4.80;99.90;;;;;;5034769;28;20226;-71
2023/01/25 09:35:30;;;;;;;15.87;11.67;;;5.00;99.90;;;;;;5017593;28;20688;-68
2023/01/25 09:37:55;;;;;;;15.47;12.37;;;4.90;99.90;;;;;;5035780;28;20172;-70
2023/01/25 09:40:24;;;;;;;15.30;12.80;;;5.00;99.90;;;;;;5035186;28;20188;-69
2023/01/25 09:43:21;;;;;;;14.03;12.30;;;5.10;99.90;;;;;;5035511;28;20175;-68
2023/01/25 09:45:47;;;;;;;16.50;13.47;;;5.20;99.90;;;;;;5034715;28;20441;-69
2023/01/25 09:48:37;;;;;;;17.13;14.53;;;5.10;99.90;;;;;;5035685;28;20913;-69
2023/01/25 09:51:20;;;;;;;17.23;12.90;;;5.30;99.90;;;;;;5035168;28;20195;-69
2023/01/25 09:53:50;;;;;;;19.70;15.03;;;4.80;99.90;;;;;;5035032;28;20551;-71
2023/01/25 09:56:24;;;;;;;15.07;12.10;;;4.60;99.90;;;;;;5043821;28;20835;-70
2023/01/25 09:58:54;;;;;;;17.37;14.80;;;4.70;99.90;;;;;;5055090;28;20413;-70
2023/01/25 10:01:56;;;;;;;20.00;15.80;;;5.00;99.90;;;;;;5055003;28;20422;-69
2023/01/25 10:04:29;;;;;;;18.77;13.17;;;5.00;99.90;;;;;;5055025;28;20488;-68
2023/01/25 10:07:21;;;;;;;17.37;13.40;;;4.80;99.90;;;;;;5037032;28;20405;-70
2023/01/25 10:10:10;;;;;;;19.40;14.20;;;4.70;99.90;;;;;;5036352;28;20411;-70
2023/01/25 10:12:38;;;;;;;18.10;14.10;;;4.60;99.90;;;;;;5054882;28;20389;-70
2023/01/25 10:15:23;;;;;;;18.57;14.77;;;4.80;99.90;;;;;;5019989;28;20421;-70
2023/01/25 10:18:04;;;;;;;17.17;14.07;;;5.00;99.90;;;;;;5054436;28;20404;-69
2023/01/25 10:20:46;;;;;;;18.50;14.20;;;4.90;99.90;;;;;;5054260;28;20448;-71
2023/01/25 10:23:56;;;;;;;16.27;13.97;;;4.50;99.90;;;;;;5054356;28;20405;-70
2023/01/25 10:26:28;;;;;;;15.60;13.50;;;4.60;99.90;;;;;;5053838;28;20502;-69
2023/01/25 10:29:09;;;;;;;18.00;13.10;;;4.70;99.90;;;;;;5054119;28;20489;-69
2023/01/25 10:31:49;;;;;;;18.13;13.90;;;4.70;99.90;;;;;;5053778;28;20440;-69
2023/01/25 10:34:26;;;;;;;17.73;14.07;;;4.60;99.90;;;;;;5053729;28;20433;-69
2023/01/25 10:36:57;;;;;;;15.37;12.50;;;4.70;99.90;;;;;;5053818;28;20396;-69
2023/01/25 10:39:23;;;;;;;15.93;13.03;;;4.50;99.90;;;;;;5035493;28;20410;-70
2023/01/25 10:42:08;;;;;;;19.47;15.80;;;4.60;99.90;;;;;;5035839;28;20939;-70
2023/01/25 10:44:35;;;;;;;15.50;13.33;;;4.70;99.90;;;;;;5053963;28;20907;-70
2023/01/25 10:47:14;;;;;;;16.03;13.80;;;4.80;99.90;;;;;;5035797;28;20421;-70
2023/01/25 10:49:47;;;;;;;19.90;15.13;;;4.80;99.90;;;;;;5036544;28;20488;-69
2023/01/25 10:52:21;;;;;;;18.37;14.13;;;4.70;99.90;;;;;;5053796;28;20409;-69
2023/01/25 10:55:05;;;;;;;18.90;14.70;;;4.80;99.90;;;;;;5053297;28;20472;-69
2023/01/25 10:57:31;;;;;;;17.80;14.17;;;4.70;99.90;;;;;;5052130;28;20467;-69
2023/01/25 11:00:00;;;;;;;20.53;15.50;;;4.70;99.90;;;;;;5053539;28;20790;-69
2023/01/25 11:02:39;;;;;;;17.97;14.10;;;4.50;99.90;;;;;;5054043;28;20480;-69
2023/01/25 11:05:28;;;;;;;18.27;14.10;;;4.50;99.90;;;;;;5053220;28;20382;-69
2023/01/25 11:07:55;;;;;;;18.30;15.13;;;4.60;99.90;;;;;;5035094;28;20527;-69
2023/01/25 11:10:31;;;;;;;17.77;14.87;;;4.60;99.90;;;;;;5053114;28;20459;-69
2023/01/25 11:13:14;;;;;;;17.93;14.80;;;4.50;99.90;;;;;;5052874;28;20440;-68
2023/01/25 11:15:40;;;;;;;16.17;14.40;;;4.50;99.90;;;;;;5053487;28;20413;-69
2023/01/25 11:18:19;;;;;;;18.80;15.10;;;4.60;99.90;;;;;;5035272;28;20466;-69
2023/01/25 11:20:45;;;;;;;16.67;14.27;;;4.70;99.90;;;;;;5053303;28;20436;-69
2023/01/25 11:23:24;;;;;;;16.40;14.70;;;4.50;99.90;;;;;;5035321;28;20420;-68
2023/01/25 11:25:51;;;;;;;22.07;16.33;;;4.50;99.90;;;;;;5053181;28;20185;-69
2023/01/25 11:28:20;;;;;;;17.33;14.33;;;4.40;99.90;;;;;;5053386;28;20401;-69
2023/01/25 11:30:46;;;;;;;22.83;16.50;;;4.70;99.90;;;;;;5053152;28;20432;-68
2023/01/25 11:33:14;;;;;;;19.03;15.73;;;4.70;99.90;;;;;;5039778;28;20454;-69
2023/01/25 11:36:07;;;;;;;16.50;14.43;;;4.60;99.90;;;;;;5011328;28;20411;-69
2023/01/25 11:38:33;;;;;;;17.53;14.30;;;4.50;99.90;;;;;;5011789;28;20886;-69
2023/01/25 11:41:17;;;;;;;17.90;14.80;;;4.30;99.90;;;;;;5019951;28;20429;-70
2023/01/25 11:44:03;;;;;;;21.90;16.27;;;4.40;99.90;;;;;;5032933;28;20163;-69
2023/01/25 11:46:40;;;;;;;20.60;16.87;;;4.60;99.90;;;;;;5032693;28;20391;-70
2023/01/25 11:50:04;;;;;;;24.63;18.00;;;4.60;99.90;;;;;;5032598;28;20429;-69
2023/01/25 11:52:37;;;;;;;22.83;17.40;;;4.50;99.90;;;;;;4967235;28;20963;-70
2023/01/25 11:55:28;;;;;;;21.47;17.60;;;4.50;99.90;;;;;;5014160;28;20488;-68
2023/01/25 11:58:11;;;;;;;22.30;17.33;;;4.60;99.90;;;;;;5012451;28;20398;-69
2023/01/25 12:01:14;;;;;;;22.17;17.57;;;4.60;99.90;;;;;;5012257;28;20534;-69
2023/01/25 12:04:06;;;;;;;26.27;20.70;;;4.70;99.90;;;;;;4991775;28;20418;-69
2023/01/25 12:06:44;;;;;;;19.03;15.80;;;4.80;99.90;;;;;;5012798;28;20395;-70
2023/01/25 12:09:21;;;;;;;20.60;16.77;;;4.80;99.90;;;;;;5012336;28;20400;-69
2023/01/25 12:12:08;;;;;;;20.67;16.10;;;4.40;99.90;;;;;;5010813;28;20445;-69
2023/01/25 12:15:00;;;;;;;22.83;16.90;;;4.40;99.90;;;;;;5010905;28;20457;-70
2023/01/25 12:17:50;;;;;;;21.77;16.00;;;4.40;99.90;;;;;;5012414;28;20387;-69
2023/01/25 12:20:42;;;;;;;21.07;16.10;;;4.30;99.90;;;;;;5028157;23;20979;-70
2023/01/25 12:23:24;;;;;;;19.43;15.57;;;4.30;99.90;;;;;;5053423;28;20462;-70
2023/01/25 12:26:04;;;;;;;19.10;15.50;;;4.40;99.90;;;;;;5051233;28;20404;-71
2023/01/25 12:28:42;;;;;;;19.57;15.90;;;4.60;99.90;;;;;;5052685;28;20385;-72
2023/01/25 12:31:20;;;;;;;22.63;18.10;;;4.60;99.90;;;;;;5050985;28;20974;-71
2023/01/25 12:33:59;;;;;;;19.67;16.00;;;4.70;99.90;;;;;;5052600;28;20441;-70
2023/01/25 12:36:36;;;;;;;19.50;16.33;;;4.60;99.90;;;;;;5052668;28;20386;-70
2023/01/25 12:39:33;;;;;;;19.80;16.23;;;4.50;99.90;;;;;;5053093;28;20389;-69
2023/01/25 12:42:22;;;;;;;27.57;18.83;;;4.40;99.90;;;;;;5041586;28;20555;-71
2023/01/25 12:44:55;;;;;;;23.53;18.43;;;4.60;99.90;;;;;;5059751;28;20460;-71
2023/01/25 12:47:31;;;;;;;22.40;17.83;;;4.80;99.90;;;;;;5065622;28;20748;-72
2023/01/25 12:49:57;;;;;;;25.43;19.20;;;4.70;99.90;;;;;;5065852;28;20383;-73
2023/01/25 12:52:34;;;;;;;22.77;18.23;;;4.90;99.90;;;;;;5063103;28;20500;-73
2023/01/25 12:55:02;;;;;;;21.80;17.67;;;4.80;99.90;;;;;;5061406;28;20198;-72
2023/01/25 12:57:42;;;;;;;23.07;18.10;;;4.60;99.90;;;;;;5059554;28;20474;-72
2023/01/25 13:00:40;;;;;;;22.83;17.50;;;4.10;99.90;;;;;;5064394;28;20385;-70
2023/01/25 13:03:19;;;;;;;24.70;18.87;;;4.10;99.90;;;;;;5062032;28;20451;-70
2023/01/25 13:06:23;;;;;;;26.87;18.87;;;4.40;99.90;;;;;;5059074;28;20788;-70